sensor_id;sensor_type;location;lat;lon;timestamp;temperature;humidity
37412;DHT22;23278;52.110;6.050;2023-04-25T00:01:45;6.70;99.90
37412;DHT22;23278;52.110;6.050;2023-04-25T00:04:11;6.70;99.90
37412;DHT22;23278;52.110;6.050;2023-04-25T00:06:37;6.70;99.90
37412;DHT22;23278;52.110;6.050;2023-04-25T00:09:04;6.60;99.90
37412;DHT22;23278;52.110;6.050;2023-04-25T00:11:33;6.50;99.90
37412;DHT22;23278;52.110;6.050;2023-04-25T00:13:59;6.50;99.90
37412;DHT22;23278;52.110;6.050;2023-04-25T00:16:27;6.40;99.90
37412;DHT22;23278;52.110;6.050;2023-04-25T00:18:54;6.40;99.90
37412;DHT22;23278;52.110;6.050;2023-04-25T00:21:21;6.30;99.90
37412;DHT22;23278;52.110;6.050;2023-04-25T00:23:47;6.30;99.90
37412;DHT22;23278;52.110;6.050;2023-04-25T00:26:13;6.20;99.90
37412;DHT22;23278;52.110;6.050;2023-04-25T00:28:39;6.20;99.90
37412;DHT22;23278;52.110;6.050;2023-04-25T00:31:05;6.20;99.90
37412;DHT22;23278;52.110;6.050;2023-04-25T00:33:31;6.10;99.90
37412;DHT22;23278;52.110;6.050;2023-04-25T00:35:57;6.10;99.90
37412;DHT22;23278;52.110;6.050;2023-04-25T00:38:23;6.00;99.90
37412;DHT22;23278;52.110;6.050;2023-04-25T00:40:49;6.00;99.90
37412;DHT22;23278;52.110;6.050;2023-04-25T00:43:15;5.90;99.90
37412;DHT22;23278;52.110;6.050;2023-04-25T00:45:43;5.90;99.90
37412;DHT22;23278;52.110;6.050;2023-04-25T00:48:09;5.90;99.90
37412;DHT22;23278;52.110;6.050;2023-04-25T00:50:36;5.80;99.90
37412;DHT22;23278;52.110;6.050;2023-04-25T00:53:02;5.80;99.90
37412;DHT22;23278;52.110;6.050;2023-04-25T00:55:29;5.70;99.90
37412;DHT22;23278;52.110;6.050;2023-04-25T00:57:57;5.70;99.90
37412;DHT22;23278;52.110;6.050;2023-04-25T01:00:23;5.70;99.90
37412;DHT22;23278;52.110;6.050;2023-04-25T01:02:49;5.60;99.90
37412;DHT22;23278;52.110;6.050;2023-04-25T01:05:15;5.60;99.90
37412;DHT22;23278;52.110;6.050;2023-04-25T01:07:41;5.60;99.90
37412;DHT22;23278;52.110;6.050;2023-04-25T01:10:08;5.50;99.90
37412;DHT22;23278;52.110;6.050;2023-04-25T01:12:34;5.50;99.90
37412;DHT22;23278;52.110;6.050;2023-04-25T01:15:00;5.50;99.90
37412;DHT22;23278;52.110;6.050;2023-04-25T01:17:27;5.60;99.90
37412;DHT22;23278;52.110;6.050;2023-04-25T01:19:53;5.70;99.90
37412;DHT22;23278;52.110;6.050;2023-04-25T01:22:19;5.80;99.90
37412;DHT22;23278;52.110;6.050;2023-04-25T01:24:46;5.80;99.90
37412;DHT22;23278;52.110;6.050;2023-04-25T01:27:13;5.80;99.90
37412;DHT22;23278;52.110;6.050;2023-04-25T01:29:39;5.80;99.90
37412;DHT22;23278;52.110;6.050;2023-04-25T01:32:06;5.80;99.90
37412;DHT22;23278;52.110;6.050;2023-04-25T01:34:32;5.80;99.90
37412;DHT22;23278;52.110;6.050;2023-04-25T01:37:00;5.80;99.90
37412;DHT22;23278;52.110;6.050;2023-04-25T01:39:28;5.80;99.90
37412;DHT22;23278;52.110;6.050;2023-04-25T01:41:54;5.70;99.90
37412;DHT22;23278;52.110;6.050;2023-04-25T01:44:20;5.70;99.90
37412;DHT22;23278;52.110;6.050;2023-04-25T01:46:47;5.70;99.90
37412;DHT22;23278;52.110;6.050;2023-04-25T01:49:13;5.70;99.90
37412;DHT22;23278;52.110;6.050;2023-04-25T01:51:40;5.70;99.90
37412;DHT22;23278;52.110;6.050;2023-04-25T01:54:07;5.70;99.90
37412;DHT22;23278;52.110;6.050;2023-04-25T01:56:37;5.80;99.90
37412;DHT22;23278;52.110;6.050;2023-04-25T01:59:05;5.80;99.90
37412;DHT22;23278;52.110;6.050;2023-04-25T02:01:51;5.80;99.90
37412;DHT22;23278;52.110;6.050;2023-04-25T02:04:24;5.90;99.90
37412;DHT22;23278;52.110;6.050;2023-04-25T02:06:51;5.90;99.90
37412;DHT22;23278;52.110;6.050;2023-04-25T02:09:17;5.90;99.90
37412;DHT22;23278;52.110;6.050;2023-04-25T02:11:47;5.90;99.90
37412;DHT22;23278;52.110;6.050;2023-04-25T02:14:32;6.00;99.90
37412;DHT22;23278;52.110;6.050;2023-04-25T02:17:10;6.00;99.90
37412;DHT22;23278;52.110;6.050;2023-04-25T02:19:38;5.90;99.90
37412;DHT22;23278;52.110;6.050;2023-04-25T02:22:04;5.80;99.90
37412;DHT22;23278;52.110;6.050;2023-04-25T02:24:30;5.70;99.90
37412;DHT22;23278;52.110;6.050;2023-04-25T02:26:57;5.60;99.90
37412;DHT22;23278;52.110;6.050;2023-04-25T02:29:23;5.50;99.90
37412;DHT22;23278;52.110;6.050;2023-04-25T02:31:49;5.50;99.90
37412;DHT22;23278;52.110;6.050;2023-04-25T02:34:16;5.50;99.90
37412;DHT22;23278;52.110;6.050;2023-04-25T02:36:42;5.40;99.90
37412;DHT22;23278;52.110;6.050;2023-04-25T02:39:08;5.40;99.90
37412;DHT22;23278;52.110;6.050;2023-04-25T02:41:34;5.40;99.90
37412;DHT22;23278;52.110;6.050;2023-04-25T02:44:00;5.30;99.90
37412;DHT22;23278;52.110;6.050;2023-04-25T02:46:26;5.30;99.90
37412;DHT22;23278;52.110;6.050;2023-04-25T02:48:52;5.40;99.90
37412;DHT22;23278;52.110;6.050;2023-04-25T02:51:17;5.50;99.90
37412;DHT22;23278;52.110;6.050;2023-04-25T02:53:44;5.50;99.90
37412;DHT22;23278;52.110;6.050;2023-04-25T02:56:10;5.60;99.90
37412;DHT22;23278;52.110;6.050;2023-04-25T02:58:36;5.60;99.90
37412;DHT22;23278;52.110;6.050;2023-04-25T03:01:02;5.60;99.90
37412;DHT22;23278;52.110;6.050;2023-04-25T03:03:28;5.60;99.90
37412;DHT22;23278;52.110;6.050;2023-04-25T03:05:54;5.60;99.90
37412;DHT22;23278;52.110;6.050;2023-04-25T03:08:28;5.60;99.90
37412;DHT22;23278;52.110;6.050;2023-04-25T03:10:59;5.50;99.90
37412;DHT22;23278;52.110;6.050;2023-04-25T03:13:25;5.40;99.90
37412;DHT22;23278;52.110;6.050;2023-04-25T03:15:53;5.40;99.90
37412;DHT22;23278;52.110;6.050;2023-04-25T03:18:19;5.30;99.90
37412;DHT22;23278;52.110;6.050;2023-04-25T03:20:45;5.20;99.90
37412;DHT22;23278;52.110;6.050;2023-04-25T03:23:12;5.10;99.90
37412;DHT22;23278;52.110;6.050;2023-04-25T03:25:40;5.00;99.90
37412;DHT22;23278;52.110;6.050;2023-04-25T03:28:06;5.00;99.90
37412;DHT22;23278;52.110;6.050;2023-04-25T03:30:33;4.90;99.90
37412;DHT22;23278;52.110;6.050;2023-04-25T03:32:59;4.80;99.90
37412;DHT22;23278;52.110;6.050;2023-04-25T03:35:25;4.80;99.90
37412;DHT22;23278;52.110;6.050;2023-04-25T03:37:51;4.70;99.90
37412;DHT22;23278;52.110;6.050;2023-04-25T03:40:22;4.70;99.90
37412;DHT22;23278;52.110;6.050;2023-04-25T03:43:23;4.70;99.90
37412;DHT22;23278;52.110;6.050;2023-04-25T03:45:55;4.60;99.90
37412;DHT22;23278;52.110;6.050;2023-04-25T03:48:22;4.60;99.90
37412;DHT22;23278;52.110;6.050;2023-04-25T03:50:50;4.60;99.90
37412;DHT22;23278;52.110;6.050;2023-04-25T03:53:16;4.50;99.90
37412;DHT22;23278;52.110;6.050;2023-04-25T03:56:00;4.50;99.90
37412;DHT22;23278;52.110;6.050;2023-04-25T03:58:26;4.50;99.90
37412;DHT22;23278;52.110;6.050;2023-04-25T04:00:52;4.60;99.90
37412;DHT22;23278;52.110;6.050;2023-04-25T04:03:18;4.60;99.90
37412;DHT22;23278;52.110;6.050;2023-04-25T04:05:44;4.70;99.90
37412;DHT22;23278;52.110;6.050;2023-04-25T04:08:10;4.80;99.90
37412;DHT22;23278;52.110;6.050;2023-04-25T04:10:38;4.80;99.90
37412;DHT22;23278;52.110;6.050;2023-04-25T04:13:04;4.90;99.90
37412;DHT22;23278;52.110;6.050;2023-04-25T04:15:31;5.00;99.90
37412;DHT22;23278;52.110;6.050;2023-04-25T04:17:58;5.10;99.90
37412;DHT22;23278;52.110;6.050;2023-04-25T04:20:29;5.10;99.90
37412;DHT22;23278;52.110;6.050;2023-04-25T04:22:56;5.10;99.90
37412;DHT22;23278;52.110;6.050;2023-04-25T04:25:23;5.10;99.90
37412;DHT22;23278;52.110;6.050;2023-04-25T04:28:12;5.10;99.90
37412;DHT22;23278;52.110;6.050;2023-04-25T04:31:01;5.30;99.90
37412;DHT22;23278;52.110;6.050;2023-04-25T04:33:30;5.40;99.90
37412;DHT22;23278;52.110;6.050;2023-04-25T04:36:00;5.50;99.90
37412;DHT22;23278;52.110;6.050;2023-04-25T04:38:27;5.60;99.90
37412;DHT22;23278;52.110;6.050;2023-04-25T04:40:57;5.70;99.90
37412;DHT22;23278;52.110;6.050;2023-04-25T04:43:52;5.80;99.90
37412;DHT22;23278;52.110;6.050;2023-04-25T04:46:41;5.80;99.90
37412;DHT22;23278;52.110;6.050;2023-04-25T04:49:29;5.90;99.90
37412;DHT22;23278;52.110;6.050;2023-04-25T04:52:06;5.90;99.90
37412;DHT22;23278;52.110;6.050;2023-04-25T04:54:50;5.90;99.90
37412;DHT22;23278;52.110;6.050;2023-04-25T04:57:45;5.90;99.90
37412;DHT22;23278;52.110;6.050;2023-04-25T05:00:31;5.90;99.90
37412;DHT22;23278;52.110;6.050;2023-04-25T05:03:17;5.90;99.90
37412;DHT22;23278;52.110;6.050;2023-04-25T05:06:08;6.00;99.90
37412;DHT22;23278;52.110;6.050;2023-04-25T05:09:02;6.10;99.90
37412;DHT22;23278;52.110;6.050;2023-04-25T05:11:41;6.20;99.90
37412;DHT22;23278;52.110;6.050;2023-04-25T05:14:37;6.20;99.90
37412;DHT22;23278;52.110;6.050;2023-04-25T05:17:31;6.20;99.90
37412;DHT22;23278;52.110;6.050;2023-04-25T05:20:33;6.20;99.90
37412;DHT22;23278;52.110;6.050;2023-04-25T05:23:11;6.30;99.90
37412;DHT22;23278;52.110;6.050;2023-04-25T05:25:50;6.30;99.90
37412;DHT22;23278;52.110;6.050;2023-04-25T05:28:37;6.50;99.90
37412;DHT22;23278;52.110;6.050;2023-04-25T05:31:14;6.50;99.90
37412;DHT22;23278;52.110;6.050;2023-04-25T05:33:57;6.50;99.90
37412;DHT22;23278;52.110;6.050;2023-04-25T05:36:31;6.60;99.90
37412;DHT22;23278;52.110;6.050;2023-04-25T05:38:58;6.60;99.90
37412;DHT22;23278;52.110;6.050;2023-04-25T05:42:02;6.50;99.90
37412;DHT22;23278;52.110;6.050;2023-04-25T05:45:01;6.50;99.90
37412;DHT22;23278;52.110;6.050;2023-04-25T05:47:36;6.50;99.90
37412;DHT22;23278;52.110;6.050;2023-04-25T05:50:07;6.50;99.90
37412;DHT22;23278;52.110;6.050;2023-04-25T05:52:50;6.50;99.90
37412;DHT22;23278;52.110;6.050;2023-04-25T05:55:34;6.60;99.90
37412;DHT22;23278;52.110;6.050;2023-04-25T05:58:08;6.60;99.90
37412;DHT22;23278;52.110;6.050;2023-04-25T06:00:34;6.60;99.90
37412;DHT22;23278;52.110;6.050;2023-04-25T06:03:00;6.70;99.90
37412;DHT22;23278;52.110;6.050;2023-04-25T06:05:27;6.80;99.90
37412;DHT22;23278;52.110;6.050;2023-04-25T06:07:53;6.80;99.90
37412;DHT22;23278;52.110;6.050;2023-04-25T06:10:20;6.90;99.90
37412;DHT22;23278;52.110;6.050;2023-04-25T06:12:46;6.90;99.90
37412;DHT22;23278;52.110;6.050;2023-04-25T06:15:15;6.90;99.90
37412;DHT22;23278;52.110;6.050;2023-04-25T06:17:41;7.00;99.90
37412;DHT22;23278;52.110;6.050;2023-04-25T06:20:08;7.00;99.90
37412;DHT22;23278;52.110;6.050;2023-04-25T06:22:34;7.10;99.90
37412;DHT22;23278;52.110;6.050;2023-04-25T06:25:00;7.10;99.90
37412;DHT22;23278;52.110;6.050;2023-04-25T06:27:28;7.20;99.90
37412;DHT22;23278;52.110;6.050;2023-04-25T06:29:55;7.20;99.90
37412;DHT22;23278;52.110;6.050;2023-04-25T06:32:21;7.30;99.90
37412;DHT22;23278;52.110;6.050;2023-04-25T06:34:47;7.30;99.90
37412;DHT22;23278;52.110;6.050;2023-04-25T06:37:13;7.40;99.90
37412;DHT22;23278;52.110;6.050;2023-04-25T06:39:39;7.40;99.90
37412;DHT22;23278;52.110;6.050;2023-04-25T06:42:05;7.40;99.90
37412;DHT22;23278;52.110;6.050;2023-04-25T06:44:44;7.50;99.90
37412;DHT22;23278;52.110;6.050;2023-04-25T06:47:11;7.60;99.90
37412;DHT22;23278;52.110;6.050;2023-04-25T06:49:38;7.80;99.90
37412;DHT22;23278;52.110;6.050;2023-04-25T06:52:04;7.90;99.90
37412;DHT22;23278;52.110;6.050;2023-04-25T06:54:30;8.00;99.90
37412;DHT22;23278;52.110;6.050;2023-04-25T06:57:03;8.10;99.90
37412;DHT22;23278;52.110;6.050;2023-04-25T06:59:31;8.30;99.90
37412;DHT22;23278;52.110;6.050;2023-04-25T07:01:58;8.50;99.90
37412;DHT22;23278;52.110;6.050;2023-04-25T07:04:25;8.60;99.90
37412;DHT22;23278;52.110;6.050;2023-04-25T07:06:55;8.60;99.90
37412;DHT22;23278;52.110;6.050;2023-04-25T07:09:28;8.70;99.90
37412;DHT22;23278;52.110;6.050;2023-04-25T07:11:54;8.60;99.90
37412;DHT22;23278;52.110;6.050;2023-04-25T07:14:20;8.40;99.90
37412;DHT22;23278;52.110;6.050;2023-04-25T07:16:46;8.30;99.90
37412;DHT22;23278;52.110;6.050;2023-04-25T07:19:12;8.10;99.90
37412;DHT22;23278;52.110;6.050;2023-04-25T07:21:39;7.90;99.90
37412;DHT22;23278;52.110;6.050;2023-04-25T07:24:06;7.80;99.90
37412;DHT22;23278;52.110;6.050;2023-04-25T07:26:35;7.70;99.90
37412;DHT22;23278;52.110;6.050;2023-04-25T07:29:30;7.70;99.90
37412;DHT22;23278;52.110;6.050;2023-04-25T07:31:59;7.70;99.90
37412;DHT22;23278;52.110;6.050;2023-04-25T07:34:24;7.80;99.90
37412;DHT22;23278;52.110;6.050;2023-04-25T07:36:50;7.90;99.90
37412;DHT22;23278;52.110;6.050;2023-04-25T07:39:16;8.10;99.90
37412;DHT22;23278;52.110;6.050;2023-04-25T07:41:43;8.20;99.90
37412;DHT22;23278;52.110;6.050;2023-04-25T07:44:13;8.40;99.90
37412;DHT22;23278;52.110;6.050;2023-04-25T07:46:40;8.60;99.90
37412;DHT22;23278;52.110;6.050;2023-04-25T07:49:06;8.80;99.90
37412;DHT22;23278;52.110;6.050;2023-04-25T07:51:33;9.10;99.90
37412;DHT22;23278;52.110;6.050;2023-04-25T07:54:04;9.50;99.90
37412;DHT22;23278;52.110;6.050;2023-04-25T07:56:32;9.80;99.90
37412;DHT22;23278;52.110;6.050;2023-04-25T07:58:58;9.90;99.90
37412;DHT22;23278;52.110;6.050;2023-04-25T08:01:24;9.80;99.90
37412;DHT22;23278;52.110;6.050;2023-04-25T08:03:57;9.80;99.90
37412;DHT22;23278;52.110;6.050;2023-04-25T08:06:35;10.00;99.90
37412;DHT22;23278;52.110;6.050;2023-04-25T08:09:09;10.40;99.90
37412;DHT22;23278;52.110;6.050;2023-04-25T08:11:38;10.70;99.80
37412;DHT22;23278;52.110;6.050;2023-04-25T08:14:06;11.00;98.70
37412;DHT22;23278;52.110;6.050;2023-04-25T08:16:33;11.20;97.50
37412;DHT22;23278;52.110;6.050;2023-04-25T08:18:59;11.20;97.10
37412;DHT22;23278;52.110;6.050;2023-04-25T08:21:26;11.10;97.00
37412;DHT22;23278;52.110;6.050;2023-04-25T08:23:54;10.70;97.60
37412;DHT22;23278;52.110;6.050;2023-04-25T08:26:25;10.10;98.40
37412;DHT22;23278;52.110;6.050;2023-04-25T08:28:52;9.70;99.20
37412;DHT22;23278;52.110;6.050;2023-04-25T08:31:18;9.60;99.60
37412;DHT22;23278;52.110;6.050;2023-04-25T08:33:53;9.50;99.90
37412;DHT22;23278;52.110;6.050;2023-04-25T08:36:42;9.60;99.90
37412;DHT22;23278;52.110;6.050;2023-04-25T08:39:21;9.80;99.90
37412;DHT22;23278;52.110;6.050;2023-04-25T08:42:12;10.10;99.90
37412;DHT22;23278;52.110;6.050;2023-04-25T08:44:38;10.50;99.90
37412;DHT22;23278;52.110;6.050;2023-04-25T08:47:05;10.80;99.70
37412;DHT22;23278;52.110;6.050;2023-04-25T08:49:35;11.10;99.70
37412;DHT22;23278;52.110;6.050;2023-04-25T08:52:03;11.30;99.50
37412;DHT22;23278;52.110;6.050;2023-04-25T08:54:32;11.50;99.00
37412;DHT22;23278;52.110;6.050;2023-04-25T08:57:01;11.60;98.30
37412;DHT22;23278;52.110;6.050;2023-04-25T08:59:30;11.90;97.90
37412;DHT22;23278;52.110;6.050;2023-04-25T09:01:57;12.10;97.20
37412;DHT22;23278;52.110;6.050;2023-04-25T09:04:23;12.50;96.20
37412;DHT22;23278;52.110;6.050;2023-04-25T09:06:49;12.80;95.30
37412;DHT22;23278;52.110;6.050;2023-04-25T09:09:15;13.10;94.70
37412;DHT22;23278;52.110;6.050;2023-04-25T09:11:41;13.30;94.40
37412;DHT22;23278;52.110;6.050;2023-04-25T09:14:19;13.50;93.90
37412;DHT22;23278;52.110;6.050;2023-04-25T09:17:05;13.80;93.60
37412;DHT22;23278;52.110;6.050;2023-04-25T09:19:45;14.30;92.60
37412;DHT22;23278;52.110;6.050;2023-04-25T09:22:19;14.90;90.40
37412;DHT22;23278;52.110;6.050;2023-04-25T09:24:48;15.50;83.80
37412;DHT22;23278;52.110;6.050;2023-04-25T09:27:21;15.80;79.40
37412;DHT22;23278;52.110;6.050;2023-04-25T09:30:04;16.00;76.30
37412;DHT22;23278;52.110;6.050;2023-04-25T09:32:47;16.20;73.50
37412;DHT22;23278;52.110;6.050;2023-04-25T09:35:24;16.30;72.40
37412;DHT22;23278;52.110;6.050;2023-04-25T09:37:51;16.20;71.80
37412;DHT22;23278;52.110;6.050;2023-04-25T09:40:52;16.30;69.30
37412;DHT22;23278;52.110;6.050;2023-04-25T09:43:33;16.90;66.20
37412;DHT22;23278;52.110;6.050;2023-04-25T09:45:59;16.80;64.50
37412;DHT22;23278;52.110;6.050;2023-04-25T09:48:29;16.30;65.80
37412;DHT22;23278;52.110;6.050;2023-04-25T09:51:10;15.60;67.90
37412;DHT22;23278;52.110;6.050;2023-04-25T09:53:38;15.10;69.50
37412;DHT22;23278;52.110;6.050;2023-04-25T09:56:30;14.80;70.30
37412;DHT22;23278;52.110;6.050;2023-04-25T09:59:01;14.50;70.20
37412;DHT22;23278;52.110;6.050;2023-04-25T10:01:28;14.30;70.30
37412;DHT22;23278;52.110;6.050;2023-04-25T10:04:10;14.40;70.90
37412;DHT22;23278;52.110;6.050;2023-04-25T10:06:51;14.50;71.10
37412;DHT22;23278;52.110;6.050;2023-04-25T10:09:20;14.70;68.90
37412;DHT22;23278;52.110;6.050;2023-04-25T10:11:47;15.00;67.40
37412;DHT22;23278;52.110;6.050;2023-04-25T10:14:19;15.40;66.80
37412;DHT22;23278;52.110;6.050;2023-04-25T10:16:47;15.50;65.00
37412;DHT22;23278;52.110;6.050;2023-04-25T10:19:13;15.60;64.50
37412;DHT22;23278;52.110;6.050;2023-04-25T10:21:48;16.30;63.70
37412;DHT22;23278;52.110;6.050;2023-04-25T10:24:16;18.00;59.60
37412;DHT22;23278;52.110;6.050;2023-04-25T10:26:42;18.70;55.40
37412;DHT22;23278;52.110;6.050;2023-04-25T10:29:09;18.30;53.40
37412;DHT22;23278;52.110;6.050;2023-04-25T10:31:45;16.90;55.80
37412;DHT22;23278;52.110;6.050;2023-04-25T10:34:11;15.50;59.90
37412;DHT22;23278;52.110;6.050;2023-04-25T10:36:37;14.40;63.00
37412;DHT22;23278;52.110;6.050;2023-04-25T10:39:07;13.50;65.30
37412;DHT22;23278;52.110;6.050;2023-04-25T10:42:01;12.80;67.20
37412;DHT22;23278;52.110;6.050;2023-04-25T10:44:29;12.40;69.40
37412;DHT22;23278;52.110;6.050;2023-04-25T10:46:59;12.20;69.80
37412;DHT22;23278;52.110;6.050;2023-04-25T10:49:42;12.10;69.40
37412;DHT22;23278;52.110;6.050;2023-04-25T10:52:27;12.00;69.20
37412;DHT22;23278;52.110;6.050;2023-04-25T10:54:57;12.20;68.80
37412;DHT22;23278;52.110;6.050;2023-04-25T10:57:43;12.40;68.40
37412;DHT22;23278;52.110;6.050;2023-04-25T11:00:18;12.60;67.10
37412;DHT22;23278;52.110;6.050;2023-04-25T11:02:47;12.90;66.50
37412;DHT22;23278;52.110;6.050;2023-04-25T11:05:33;13.30;66.40
37412;DHT22;23278;52.110;6.050;2023-04-25T11:08:00;13.80;65.00
37412;DHT22;23278;52.110;6.050;2023-04-25T11:10:30;14.30;63.10
37412;DHT22;23278;52.110;6.050;2023-04-25T11:13:00;15.20;60.30
37412;DHT22;23278;52.110;6.050;2023-04-25T11:15:26;16.10;57.20
37412;DHT22;23278;52.110;6.050;2023-04-25T11:17:53;17.50;54.00
37412;DHT22;23278;52.110;6.050;2023-04-25T11:20:19;19.80;49.40
37412;DHT22;23278;52.110;6.050;2023-04-25T11:22:46;21.70;45.90
37412;DHT22;23278;52.110;6.050;2023-04-25T11:25:14;23.60;42.50
37412;DHT22;23278;52.110;6.050;2023-04-25T11:27:53;25.30;39.40
37412;DHT22;23278;52.110;6.050;2023-04-25T11:30:20;26.70;36.50
37412;DHT22;23278;52.110;6.050;2023-04-25T11:32:47;28.30;34.80
37412;DHT22;23278;52.110;6.050;2023-04-25T11:35:13;27.40;34.80
37412;DHT22;23278;52.110;6.050;2023-04-25T11:37:39;25.50;36.10
37412;DHT22;23278;52.110;6.050;2023-04-25T11:40:06;24.40;36.30
37412;DHT22;23278;52.110;6.050;2023-04-25T11:42:34;24.80;36.00
37412;DHT22;23278;52.110;6.050;2023-04-25T11:45:00;26.50;34.40
37412;DHT22;23278;52.110;6.050;2023-04-25T11:47:30;27.40;32.40
37412;DHT22;23278;52.110;6.050;2023-04-25T11:50:00;28.20;32.60
37412;DHT22;23278;52.110;6.050;2023-04-25T11:52:41;29.30;32.00
37412;DHT22;23278;52.110;6.050;2023-04-25T11:55:15;30.80;31.90
37412;DHT22;23278;52.110;6.050;2023-04-25T11:57:44;31.60;30.30
37412;DHT22;23278;52.110;6.050;2023-04-25T12:00:15;30.00;30.40
37412;DHT22;23278;52.110;6.050;2023-04-25T12:02:45;29.80;30.90
37412;DHT22;23278;52.110;6.050;2023-04-25T12:05:12;30.60;30.00
37412;DHT22;23278;52.110;6.050;2023-04-25T12:07:38;31.70;29.30
37412;DHT22;23278;52.110;6.050;2023-04-25T12:10:10;32.10;28.70
37412;DHT22;23278;52.110;6.050;2023-04-25T12:12:37;30.20;29.20
37412;DHT22;23278;52.110;6.050;2023-04-25T12:15:17;27.70;30.40
37412;DHT22;23278;52.110;6.050;2023-04-25T12:17:46;25.30;32.40
37412;DHT22;23278;52.110;6.050;2023-04-25T12:20:14;23.50;32.90
37412;DHT22;23278;52.110;6.050;2023-04-25T12:22:45;22.20;34.70
37412;DHT22;23278;52.110;6.050;2023-04-25T12:25:12;21.60;36.00
37412;DHT22;23278;52.110;6.050;2023-04-25T12:27:39;22.80;35.00
37412;DHT22;23278;52.110;6.050;2023-04-25T12:30:08;25.50;32.90
37412;DHT22;23278;52.110;6.050;2023-04-25T12:32:36;26.00;32.30
37412;DHT22;23278;52.110;6.050;2023-04-25T12:35:05;24.90;33.00
37412;DHT22;23278;52.110;6.050;2023-04-25T12:37:32;23.80;34.20
37412;DHT22;23278;52.110;6.050;2023-04-25T12:39:58;23.30;34.40
37412;DHT22;23278;52.110;6.050;2023-04-25T12:42:23;22.40;35.10
37412;DHT22;23278;52.110;6.050;2023-04-25T12:44:49;23.60;34.30
37412;DHT22;23278;52.110;6.050;2023-04-25T12:47:15;25.90;31.30
37412;DHT22;23278;52.110;6.050;2023-04-25T12:49:41;25.50;30.20
37412;DHT22;23278;52.110;6.050;2023-04-25T12:52:07;25.10;30.30
37412;DHT22;23278;52.110;6.050;2023-04-25T12:54:33;26.50;29.80
37412;DHT22;23278;52.110;6.050;2023-04-25T12:56:59;27.10;29.30
37412;DHT22;23278;52.110;6.050;2023-04-25T12:59:28;26.10;29.70
37412;DHT22;23278;52.110;6.050;2023-04-25T13:01:54;25.00;30.50
37412;DHT22;23278;52.110;6.050;2023-04-25T13:04:20;24.20;31.00
37412;DHT22;23278;52.110;6.050;2023-04-25T13:06:47;23.70;31.30
37412;DHT22;23278;52.110;6.050;2023-04-25T13:09:13;24.30;30.70
37412;DHT22;23278;52.110;6.050;2023-04-25T13:11:39;25.70;29.30
37412;DHT22;23278;52.110;6.050;2023-04-25T13:14:06;25.30;29.80
37412;DHT22;23278;52.110;6.050;2023-04-25T13:16:32;24.10;30.90
37412;DHT22;23278;52.110;6.050;2023-04-25T13:18:58;23.50;31.90
37412;DHT22;23278;52.110;6.050;2023-04-25T13:21:24;23.20;32.00
37412;DHT22;23278;52.110;6.050;2023-04-25T13:23:51;22.20;33.50
37412;DHT22;23278;52.110;6.050;2023-04-25T13:26:17;21.20;35.10
37412;DHT22;23278;52.110;6.050;2023-04-25T13:28:42;20.30;36.10
37412;DHT22;23278;52.110;6.050;2023-04-25T13:31:08;19.60;36.00
37412;DHT22;23278;52.110;6.050;2023-04-25T13:33:34;19.20;36.40
37412;DHT22;23278;52.110;6.050;2023-04-25T13:36:01;18.90;37.00
37412;DHT22;23278;52.110;6.050;2023-04-25T13:38:27;18.80;36.30
37412;DHT22;23278;52.110;6.050;2023-04-25T13:40:53;19.00;36.70
37412;DHT22;23278;52.110;6.050;2023-04-25T13:43:20;20.90;35.10
37412;DHT22;23278;52.110;6.050;2023-04-25T13:45:50;24.00;32.30
37412;DHT22;23278;52.110;6.050;2023-04-25T13:48:18;26.40;30.50
37412;DHT22;23278;52.110;6.050;2023-04-25T13:50:45;25.40;31.70
37412;DHT22;23278;52.110;6.050;2023-04-25T13:53:11;23.70;33.50
37412;DHT22;23278;52.110;6.050;2023-04-25T13:55:37;22.20;35.10
37412;DHT22;23278;52.110;6.050;2023-04-25T13:58:04;21.00;36.40
37412;DHT22;23278;52.110;6.050;2023-04-25T14:00:37;20.00;37.20
37412;DHT22;23278;52.110;6.050;2023-04-25T14:03:09;19.30;38.10
37412;DHT22;23278;52.110;6.050;2023-04-25T14:05:36;18.80;39.00
37412;DHT22;23278;52.110;6.050;2023-04-25T14:08:09;18.60;39.30
37412;DHT22;23278;52.110;6.050;2023-04-25T14:10:35;18.70;39.30
37412;DHT22;23278;52.110;6.050;2023-04-25T14:13:02;21.00;37.10
37412;DHT22;23278;52.110;6.050;2023-04-25T14:15:29;23.90;33.00
37412;DHT22;23278;52.110;6.050;2023-04-25T14:17:56;26.10;31.50
37412;DHT22;23278;52.110;6.050;2023-04-25T14:20:22;27.10;31.00
37412;DHT22;23278;52.110;6.050;2023-04-25T14:22:49;28.20;30.00
37412;DHT22;23278;52.110;6.050;2023-04-25T14:25:15;27.00;30.20
37412;DHT22;23278;52.110;6.050;2023-04-25T14:27:41;25.70;30.60
37412;DHT22;23278;52.110;6.050;2023-04-25T14:30:07;24.50;31.20
37412;DHT22;23278;52.110;6.050;2023-04-25T14:32:35;23.40;32.80
37412;DHT22;23278;52.110;6.050;2023-04-25T14:35:01;23.10;33.90
37412;DHT22;23278;52.110;6.050;2023-04-25T14:37:27;25.10;32.20
37412;DHT22;23278;52.110;6.050;2023-04-25T14:39:53;27.20;30.90
37412;DHT22;23278;52.110;6.050;2023-04-25T14:42:19;27.40;30.30
37412;DHT22;23278;52.110;6.050;2023-04-25T14:44:45;25.90;30.40
37412;DHT22;23278;52.110;6.050;2023-04-25T14:47:11;24.10;31.50
37412;DHT22;23278;52.110;6.050;2023-04-25T14:49:37;22.30;34.00
37412;DHT22;23278;52.110;6.050;2023-04-25T14:52:03;20.90;36.10
37412;DHT22;23278;52.110;6.050;2023-04-25T14:54:29;19.80;37.60
37412;DHT22;23278;52.110;6.050;2023-04-25T14:56:55;18.90;39.30
37412;DHT22;23278;52.110;6.050;2023-04-25T14:59:21;18.40;40.50
37412;DHT22;23278;52.110;6.050;2023-04-25T15:01:47;18.10;41.10
37412;DHT22;23278;52.110;6.050;2023-04-25T15:04:13;18.40;41.10
37412;DHT22;23278;52.110;6.050;2023-04-25T15:06:39;20.30;39.10
37412;DHT22;23278;52.110;6.050;2023-04-25T15:09:05;23.30;35.20
37412;DHT22;23278;52.110;6.050;2023-04-25T15:11:31;24.70;33.50
37412;DHT22;23278;52.110;6.050;2023-04-25T15:13:57;24.40;33.50
37412;DHT22;23278;52.110;6.050;2023-04-25T15:16:23;25.10;32.60
37412;DHT22;23278;52.110;6.050;2023-04-25T15:18:49;25.70;32.50
37412;DHT22;23278;52.110;6.050;2023-04-25T15:21:15;25.00;33.10
37412;DHT22;23278;52.110;6.050;2023-04-25T15:23:41;23.70;34.90
37412;DHT22;23278;52.110;6.050;2023-04-25T15:26:08;23.00;35.20
37412;DHT22;23278;52.110;6.050;2023-04-25T15:28:34;23.90;33.80
37412;DHT22;23278;52.110;6.050;2023-04-25T15:31:00;25.10;32.10
37412;DHT22;23278;52.110;6.050;2023-04-25T15:33:26;25.50;32.30
37412;DHT22;23278;52.110;6.050;2023-04-25T15:35:52;25.80;31.90
37412;DHT22;23278;52.110;6.050;2023-04-25T15:38:18;25.70;31.60
37412;DHT22;23278;52.110;6.050;2023-04-25T15:40:44;26.30;31.50
37412;DHT22;23278;52.110;6.050;2023-04-25T15:43:10;27.30;31.40
37412;DHT22;23278;52.110;6.050;2023-04-25T15:45:40;28.30;31.70
37412;DHT22;23278;52.110;6.050;2023-04-25T15:48:07;28.80;30.00
37412;DHT22;23278;52.110;6.050;2023-04-25T15:50:33;27.60;30.20
37412;DHT22;23278;52.110;6.050;2023-04-25T15:53:01;26.90;30.50
37412;DHT22;23278;52.110;6.050;2023-04-25T15:55:27;27.40;30.10